Tiempo atmosférico en la estación meteorológica de Aller, Asturias (750 m.)

Fecha
DESCASC
Temp. máxima en grados centígrados (hora)
DESCASC
Temp. mínima en grados centígrados (hora)
DESCASC
Temp. media en grados centígrados
DESCASC
Racha de viento máxima en m/sg (hora)
DESCASC
Velocidad máxima media en intervalos de 10 minutos(hora)
DESCASC
Precipitaciones diarias en mm
DESCASC
Precipitaciones de 00:00 a 06:00 en mm
DESCASC
Precipitaciones de 06:00 a 12:00 en mm
DESCASC
Precipitaciones de 12:00 a 18:00 en mm
DESCASC
Precipitaciones de 18:00 a 24:00 en mm
DESCASC
10-12-2017 13.5 (12:50) 6.9 (23:59) 10.2 11.39 (19:00) 5.28 (23:20) 28.6 0 0 4.6 24
09-12-2017 9.8 (15:40) 4.3 (04:20) 7.1 6.11 (19:20) 2.22 (21:40) 4 0 2.2 1.8 0
08-12-2017 8.4 (12:30) 5.6 (23:59) 7 4.17 (12:20) 2.22 (15:50) 18.4 4.6 6.4 6 1.4
07-12-2017 12.4 (12:30) 3.4 (00:00) 7.9 4.72 (13:20) 2.78 (12:50) 2.2 0 0 1.6 0.6
06-12-2017 7.7 (13:30) -1.3 (-00:0) 3.2 4.17 (12:30) 2.78 (12:40) 0 0 0 0 0
05-12-2017 5.8 (13:10) -1.7 (-00:0) 2.1 5.28 (13:30) 3.06 (13:30) 0 0 0 0 0
04-12-2017 6.4 (13:30) -0.4 (00:00) 3 4.17 (15:40) 2.5 (12:30) 0 0 0 0 0
03-12-2017 4.9 (15:30) 0.7 (00:00) 2.8 5 (00:20) 2.5 (00:20) 0.8 0.4 0.4 0 0
02-12-2017 2.5 (16:20) 0.2 (00:00) 1.4 7.78 (16:40) 3.61 (14:10) 10.4 2.6 4.2 2.6 1
01-12-2017 3 (09:20) 0.1 (00:00) 1.6 11.94 (12:50) 5 (08:00) 38.4 9.8 22.2 3.2 3.2
30-11-2017 2.3 (15:00) 0.1 (00:00) 1.2 7.5 (22:30) 3.61 (22:30) 12.8 1.8 1 3.8 6.2
29-11-2017 4.4 (00:00) 0.1 (00:00) 2.3 5.56 (09:10) 2.78 (09:10) 19.2 1.4 6.8 7.4 3.6
28-11-2017 7.9 (16:50) -1.3 (-00:0) 3.3 4.17 (14:30) 2.5 (11:00) 1.8 0 0 0 1.8
27-11-2017 8.3 (13:30) -1 (-00:0) 3.7 3.33 (18:10) 2.22 (10:40) 0 0 0 0 0
26-11-2017 6.2 (13:30) -0.8 (-00:0) 2.7 3.61 (18:20) 2.22 (17:00) 0 0 0 0 0
25-11-2017 8.8 (00:00) 3.5 (00:00) 6.2 5.83 (02:40) 3.06 (02:50) 7.8 4.2 2.4 1 0.2
24-11-2017 14.8 (00:30) 8.8 (00:00) 11.8 10.56 (04:00) 3.33 (03:10) 16.2 0 0 4.6 11.6
23-11-2017 16.5 (15:50) 9.3 (00:00) 12.9 13.33 (12:30) 5.28 (13:40) 0 0 0 0 0
22-11-2017 18.1 (12:50) 6.3 (00:00) 12.2 15.56 (16:30) 5.83 (17:10) 0 0 0 0 0
21-11-2017 15.8 (13:30) 2 (00:00) 8.9 5 (17:10) 2.78 (10:00) 0 0 0 0 0
20-11-2017 15.2 (13:30) 1.8 (00:00) 8.5 4.72 (10:30) 3.06 (10:20) 0 0 0 0 0
19-11-2017 12.8 (13:10) 1.2 (00:00) 7 4.72 (19:30) 2.78 (18:10) 0 0 0 0 0
18-11-2017 11.8 (13:30) 0.4 (00:00) 6.1 3.89 (11:00) 2.5 (21:10) 0 0 0 0 0
17-11-2017 10.2 (13:30) 1.5 (00:00) 5.8 4.17 (21:40) 2.22 (21:40) 0 0 0 0 0
16-11-2017 14.1 (13:30) 2.8 (00:00) 8.5 4.17 (20:30) 2.22 (17:50) 0 0 0 0 0
15-11-2017 13.8 (13:40) 1.8 (00:00) 7.8 4.72 (11:30) 2.78 (17:20) 0 0 0 0 0

Gráficas

Temp. máximas Temp. mínimas Temp. medias Precipitaciones Rachas de viento máximas Velocidades máximas media en intervalos de 10 minutos

Datos horarios

Fecha y hora oficial Temperatura (ºC) Velocidad del viento (km/h) Dirección del viento Racha (km/h) Dirección de racha Precipitación (mm) Presión (hPa) Tendencia (hPa) Humedad (%)
2017-12-14 23:00:00 4.6 4 Sudeste 8 Sudeste 0 -- -- 97
2017-12-14 22:00:00 6.4 0 Calma 8 Noroeste 0 -- -- 95
2017-12-14 21:00:00 7.5 5 Norte 11 Norte 0 -- -- 99
2017-12-14 20:00:00 7.3 2 Sudeste 5 Este 0 -- -- 98
2017-12-14 19:00:00 7.9 3 Norte 8 Sur 0 -- -- 97
2017-12-14 18:00:00 8.8 4 Sudeste 8 Sudeste 0 -- -- 97
2017-12-14 17:00:00 9.5 4 Sudeste 7 Sur 0.2 -- -- 95
2017-12-14 16:00:00 10.4 3 Sudeste 8 Sur 0 -- -- 92
2017-12-14 15:00:00 10.3 4 Sudeste 9 Sur 0 -- -- 92
2017-12-14 14:00:00 10.6 4 Sudeste 8 Sudeste 0 -- -- 91
2017-12-14 13:00:00 10.2 4 Sur 9 Sur 0 -- -- 93
2017-12-14 12:00:00 8.7 5 Sudeste 9 Sudeste 0.2 -- -- 100
2017-12-14 11:00:00 7.7 5 Sudeste 9 Sudeste 0.8 -- -- 100
2017-12-14 10:00:00 7.2 5 Sudeste 8 Sudeste 1 -- -- 100
2017-12-14 09:00:00 7.1 4 Sudeste 8 Sudeste 1 -- -- 99
2017-12-14 08:00:00 7 3 Sudeste 8 Sur 1.6 -- -- 99
2017-12-14 07:00:00 7 0 Calma 8 Sudeste 2.8 -- -- 99
2017-12-14 06:00:00 7.1 2 Sudeste 8 Sudeste 2.8 -- -- 99
2017-12-14 05:00:00 7.3 3 Sur 9 Sudeste 2.4 -- -- 99
2017-12-14 04:00:00 7.4 3 Sudeste 9 Sur 3.4 -- -- 99
2017-12-14 03:00:00 7.3 7 Sudeste 12 Sudeste 1.4 -- -- 98
2017-12-14 02:00:00 7.4 5 Sudeste 13 Este 3.4 -- -- 96
2017-12-14 01:00:00 8.1 7 Este 14 Este 1.4 -- -- 93
2017-12-14 00:00:00 8.7 8 Sudeste 19 Sur 0.2 -- -- 90
2017-12-13 23:00:00 8.4 7 Sudeste 12 Sudeste 0 -- -- 86
2017-12-13 22:00:00 8.5 6 Sudeste 14 Sur 0 -- -- 84
2017-12-13 21:00:00 8.4 8 Sudeste 15 Este 0 -- -- 84
2017-12-13 20:00:00 8.3 7 Sudeste 15 Este 0 -- -- 82
2017-12-13 19:00:00 8.6 9 Este 17 Este 0 -- -- 76
2017-12-13 18:00:00 8.7 10 Este 21 Sudeste 0 -- -- 74
2017-12-13 17:00:00 8.9 11 Este 23 Sudeste 0 -- -- 71
2017-12-13 16:00:00 9.1 10 Este 26 Sudeste 0 -- -- 69
2017-12-13 15:00:00 9.5 11 Este 26 Sudeste 0 -- -- 67
2017-12-13 14:00:00 9.4 11 Sudeste 26 Sudeste 0 -- -- 63
2017-12-13 13:00:00 8.9 11 Este 24 Sudeste 0 -- -- 60
2017-12-13 12:00:00 8.2 10 Este 27 Este 0 -- -- 61
2017-12-13 11:00:00 7.9 12 Este 24 Este 0 -- -- 62
2017-12-13 10:00:00 6.9 9 Sudeste 27 Sudeste 0 -- -- 65
2017-12-13 09:00:00 6 10 Este 25 Este 0 -- -- 71
2017-12-13 08:00:00 5.3 9 Este 23 Sudeste 0 -- -- 78
2017-12-13 07:00:00 6.2 9 Sudeste 24 Este 0 -- -- 75
2017-12-13 06:00:00 5.4 10 Este 23 Este 0 -- -- 83
2017-12-13 05:00:00 5.1 6 Este 18 Este 0 -- -- 88
2017-12-13 04:00:00 5.2 7 Este 17 Este 0 -- -- 88
2017-12-13 03:00:00 4.9 9 Este 18 Este 0 -- -- 88
2017-12-13 02:00:00 4.2 7 Este 17 Este 0 -- -- 90
2017-12-13 01:00:00 3.3 5 Este 10 Sudeste 0 -- -- 95
2017-12-13 00:00:00 2.5 3 Sudeste 9 Sudeste 0 -- -- 92
2017-12-12 23:00:00 1.6 0 Calma 10 Sudeste 0 -- -- 94
2017-12-12 22:00:00 1.4 5 Sudeste 10 Sudeste 0 -- -- 95
2017-12-12 21:00:00 1.4 6 Sudeste 11 Sudeste 0 -- -- 97
2017-12-12 20:00:00 1.3 3 Sudeste 10 Sudeste 0 -- -- 96
2017-12-12 19:00:00 1.9 4 Sudeste 10 Sudeste 0 -- -- 96
2017-12-12 18:00:00 2.5 5 Sudeste 8 Sudeste 0 -- -- 95
2017-12-12 17:00:00 3.5 2 Este 5 Sudeste 0 -- -- 93
2017-12-12 16:00:00 4.2 3 Este 6 Sudeste 0 -- -- 91
2017-12-12 15:00:00 4.2 3 Sur 6 Sudeste 0 -- -- 89
2017-12-12 14:00:00 3.5 3 Sur 7 Sudeste 0 -- -- 92
2017-12-12 13:00:00 2.7 3 Este 6 Este 0 -- -- 97
2017-12-12 12:00:00 2 0 Calma 8 Sudeste 0.2 -- -- 99
2017-12-12 11:00:00 1.2 3 Sudeste 8 Sudeste 0 -- -- 100
2017-12-12 10:00:00 0.5 0 Calma 5 Este 0 -- -- 100
2017-12-12 09:00:00 0.2 0 Calma 4 Noroeste 1.6 -- -- 100
2017-12-12 08:00:00 0.2 0 Calma 4 Norte 1.8 -- -- 100
2017-12-12 07:00:00 0.2 2 Norte 4 Noroeste 1.4 -- -- 100
2017-12-12 06:00:00 0.2 2 Norte 4 Noroeste 2.4 -- -- 100
2017-12-12 05:00:00 0.3 2 Noroeste 4 Noroeste 1.4 -- -- 100
2017-12-12 04:00:00 0.2 0 Calma 4 Noroeste 1.4 -- -- 100
2017-12-12 03:00:00 0.5 2 Norte 16 Norte 2.2 -- -- 100
2017-12-12 02:00:00 0.9 0 Calma 6 Sur 0 -- -- 100
2017-12-12 01:00:00 0.7 0 Calma 7 Noroeste 0 -- -- 99
2017-12-12 00:00:00 0.9 0 Calma 17 Norte 1.2 -- -- 97
2017-12-11 23:00:00 1.2 10 Norte 24 Norte 0.8 -- -- 97
2017-12-11 22:00:00 1.7 7 Norte 23 Noroeste 0.2 -- -- 94
2017-12-11 21:00:00 1.6 8 Norte 24 Noroeste 0 -- -- 94
2017-12-11 20:00:00 1.1 9 Norte 22 Noroeste 1 -- -- 96
2017-12-11 19:00:00 0.9 11 Norte 19 Norte 0 -- -- 97
2017-12-11 18:00:00 0.8 7 Norte 29 Noroeste 1.2 -- -- 96
2017-12-11 17:00:00 1.1 6 Nordeste 18 Norte 1.8 -- -- 97
2017-12-11 16:00:00 0.8 8 Norte 16 Noroeste 3.4 -- -- 100
2017-12-11 15:00:00 0.7 4 Norte 9 Norte 3 -- -- 100
2017-12-11 14:00:00 0.8 4 Noroeste 8 Noroeste 3.6 -- -- 98
2017-12-11 13:00:00 2.2 2 Norte 6 Norte 2.2 -- -- 94
2017-12-11 12:00:00 2.9 3 Sudeste 5 Sudeste 0.6 -- -- 92
2017-12-11 11:00:00 2.7 3 Este 6 Este 0.6 -- -- 95
2017-12-11 10:00:00 2.7 2 Norte 10 Este 0.2 -- -- 96
2017-12-11 09:00:00 2 5 Sudeste 11 Sudeste 0 -- -- 98
2017-12-11 08:00:00 1.7 4 Sudeste 8 Sur 0 -- -- 98
2017-12-11 07:00:00 1.7 4 Sudeste 9 Sudeste 0 -- -- 99
2017-12-11 06:00:00 1.8 2 Sudeste 8 Sudeste 1.2 -- -- 97
2017-12-11 05:00:00 2.1 4 Sudeste 10 Sudeste 0.4 -- -- 97
2017-12-11 04:00:00 2.2 6 Nordeste 27 Norte 5 -- -- 94
2017-12-11 03:00:00 4.8 15 Norte 28 Norte 1 -- -- 93
2017-12-11 02:00:00 5.5 3 Sudeste 6 Este 0 -- -- 96
2017-12-11 01:00:00 6.3 2 Nordeste 12 Norte 1.2 -- -- 93
2017-12-11 00:00:00 6.9 3 Este 40 Noroeste 6 -- -- 93
2017-12-10 23:00:00 8.9 4 Sudeste 17 Sur 8 -- -- 95
2017-12-10 22:00:00 9.9 5 Sudeste 32 Sudeste 4.4 -- -- 91
2017-12-10 21:00:00 9.3 3 Nordeste 34 Este 2.4 -- -- 94
2017-12-10 20:00:00 10.4 6 Sudeste 26 Sudeste 2 -- -- 88
2017-12-10 19:00:00 11.3 12 Sudeste 41 Sudeste 1.2 -- -- 79
2017-12-10 18:00:00 9.3 4 Sudeste 12 Sudeste 0 -- -- 93
2017-12-10 17:00:00 10.1 4 Sudeste 22 Norte 4.2 -- -- 95
2017-12-10 16:00:00 11.9 11 Norte 21 Noroeste 0.2 -- -- 84
2017-12-10 15:00:00 12.3 6 Sudeste 11 Sudeste 0.2 -- -- 82
2017-12-10 14:00:00 13.2 5 Este 11 Este 0 -- -- 74
2017-12-10 13:00:00 13.5 4 Sur 27 Sudeste 0 -- -- 68
2017-12-10 12:00:00 13.2 14 Sudeste 39 Sudeste 0 -- -- 65
2017-12-10 11:00:00 13 13 Sudeste 35 Sudeste 0 -- -- 66
2017-12-10 10:00:00 12.9 10 Sudeste 30 Sudeste 0 -- -- 65
2017-12-10 09:00:00 12.9 12 Sudeste 33 Sudeste 0 -- -- 65
2017-12-10 08:00:00 12 4 Norte 19 Sudeste 0 -- -- 70
2017-12-10 07:00:00 13.1 8 Este 30 Este 0 -- -- 63
2017-12-10 06:00:00 10.6 6 Sudeste 15 Este 0 -- -- 78
2017-12-10 05:00:00 9.2 6 Sudeste 15 Sudeste 0 -- -- 84
2017-12-10 04:00:00 9.3 5 Sudeste 16 Sudeste 0 -- -- 85
2017-12-10 03:00:00 8.8 4 Sudoeste 9 Este 0 -- -- 88
2017-12-10 02:00:00 9.4 4 Sudeste 15 Este 0 -- -- 84
2017-12-10 01:00:00 9 5 Sudeste 12 Sudeste 0 -- -- 87
2017-12-10 00:00:00 9 8 Sudeste 15 Sudeste 0 -- -- 87
2017-12-09 23:00:00 8.7 5 Sudeste 10 Sudeste 0 -- -- 90
2017-12-09 22:00:00 8.9 8 Sudeste 14 Sudeste 0 -- -- 90
2017-12-09 21:00:00 8.6 4 Sudeste 10 Sudeste 0 -- -- 94
2017-12-09 20:00:00 8.3 5 Sudeste 22 Este 0 -- -- 97
2017-12-09 19:00:00 8.4 4 Sudeste 9 Sudeste 0 -- -- 97
2017-12-09 18:00:00 8.6 2 Sudeste 8 Este 0 -- -- 97
2017-12-09 17:00:00 9.2 3 Sur 12 Sudeste 0 -- -- 96
2017-12-09 16:00:00 9.7 0 Calma 12 Sudeste 0 -- -- 96
2017-12-09 15:00:00 9.4 6 Sudeste 12 Sudeste 0.4 -- -- 97
2017-12-09 14:00:00 8.8 5 Sudeste 10 Sudeste 0.2 -- -- 99
2017-12-09 13:00:00 7.6 5 Sudeste 11 Sudeste 1.2 -- -- 99
2017-12-09 12:00:00 6.4 4 Sudeste 9 Sudeste 1.2 -- -- 99
2017-12-09 11:00:00 5.6 3 Este 8 Sudeste 0.4 -- -- 98
2017-12-09 10:00:00 4.9 3 Sudeste 9 Sudeste 0.2 -- -- 97
2017-12-09 09:00:00 4.5 6 Sudeste 12 Sudeste 0 -- -- 96
2017-12-09 08:00:00 4.4 4 Sudeste 8 Sudeste 0.2 -- -- 99
2017-12-09 07:00:00 4.4 4 Sudeste 8 Sudeste 0.2 -- -- 99
2017-12-09 06:00:00 4.3 3 Sudeste 6 Sudeste 0 -- -- 100
2017-12-09 05:00:00 4.3 3 Sudeste 8 Sudeste 0 -- -- 100
2017-12-09 04:00:00 4.6 4 Sudeste 9 Este 0 -- -- 100
2017-12-09 03:00:00 5.3 0 Calma 4 Noroeste 0 -- -- 100
2017-12-09 02:00:00 5.5 0 Calma 6 Norte 0 -- -- 100
2017-12-09 01:00:00 5.6 4 Norte 9 Noroeste 0 -- -- 100
2017-12-09 00:00:00 5.6 4 Norte 8 Norte 0 -- -- 100
2017-12-08 23:00:00 5.7 5 Norte 10 Norte 0.2 -- -- 100
2017-12-08 22:00:00 5.7 6 Norte 10 Noroeste 0.4 -- -- 100
2017-12-08 21:00:00 5.9 6 Norte 12 Norte 0.4 -- -- 100
2017-12-08 20:00:00 6 6 Norte 10 Norte 0.2 -- -- 100
2017-12-08 19:00:00 6.4 6 Norte 12 Norte 0.2 -- -- 100
2017-12-08 18:00:00 6.8 5 Norte 10 Norte 0.8 -- -- 100
2017-12-08 17:00:00 7.2 6 Norte 13 Norte 1.2 -- -- 99
2017-12-08 16:00:00 7.5 6 Norte 14 Noroeste 1.4 -- -- 99
2017-12-08 15:00:00 8 4 Norte 15 Norte 1 -- -- 99
2017-12-08 14:00:00 8.2 6 Norte 12 Norte 0.6 -- -- 99
2017-12-08 13:00:00 8.3 6 Norte 15 Noroeste 1 -- -- 100
2017-12-08 12:00:00 8.3 8 Norte 15 Noroeste 0.6 -- -- 100
2017-12-08 11:00:00 7.7 2 Norte 6 Norte 0.6 -- -- 100
2017-12-08 10:00:00 7.2 2 Sudeste 8 Sudeste 2 -- -- 100
2017-12-08 09:00:00 7.1 3 Sudeste 7 Sudeste 1.2 -- -- 100
2017-12-08 08:00:00 6.8 4 Sudeste 8 Sudeste 1 -- -- 100
2017-12-08 07:00:00 6.7 3 Sudeste 10 Sudeste 1 -- -- 99
2017-12-08 06:00:00 6.6 4 Sudeste 11 Sudeste 1 -- -- 99
2017-12-08 05:00:00 6.7 5 Sudeste 11 Sudeste 2.6 -- -- 99
2017-12-08 04:00:00 6.8 6 Sudeste 13 Sudeste 0.8 -- -- 97
2017-12-08 03:00:00 7.1 6 Sudeste 14 Sudeste 0.2 -- -- 95
2017-12-08 02:00:00 7.2 6 Sudeste 14 Sudeste 0 -- -- 91
2017-12-08 01:00:00 7.1 7 Sudeste 11 Sudeste 0 -- -- 91
2017-12-08 00:00:00 7.3 7 Sudeste 13 Sudeste 0 -- -- 91
2017-12-07 23:00:00 7.2 5 Sudeste 12 Sudeste 0 -- -- 92
2017-12-07 22:00:00 6.9 7 Sudeste 13 Sudeste 0 -- -- 92
2017-12-07 21:00:00 7.3 5 Sudeste 13 Sur 0 -- -- 91
2017-12-07 20:00:00 7.5 7 Sudeste 16 Sudeste 0 -- -- 90
2017-12-07 19:00:00 7.7 9 Este 17 Sudeste 0.6 -- -- 89
2017-12-07 18:00:00 7.7 9 Este 15 Este 0.2 -- -- 89
2017-12-07 17:00:00 7.5 9 Sudeste 14 Este 1 -- -- 90
2017-12-07 16:00:00 8.3 7 Sudeste 16 Este 0.4 -- -- 86
2017-12-07 15:00:00 11.3 7 Este 16 Sudeste 0 -- -- 61
2017-12-07 14:00:00 11 7 Sudeste 17 Sudeste 0 -- -- 61
2017-12-07 13:00:00 11.9 10 Sudeste 16 Sudeste 0 -- -- 59
2017-12-07 12:00:00 10.5 7 Sur 13 Sur 0 -- -- 69
2017-12-07 11:00:00 7.3 8 Sudeste 14 Sudeste 0 -- -- 80
2017-12-07 10:00:00 6.9 6 Sudeste 13 Sudeste 0 -- -- 79
2017-12-07 09:00:00 6.5 7 Sudeste 15 Sur 0 -- -- 74
2017-12-07 08:00:00 5.6 7 Sudeste 12 Sudeste 0 -- -- 70
2017-12-07 07:00:00 5.2 3 Sudeste 13 Sudeste 0 -- -- 72
2017-12-07 06:00:00 5.2 7 Sudeste 12 Sudeste 0 -- -- 68
2017-12-07 05:00:00 5.1 7 Sudeste 14 Sudeste 0 -- -- 68
2017-12-07 04:00:00 4.4 9 Sudeste 14 Sudeste 0 -- -- 70
2017-12-07 03:00:00 5.5 6 Sudeste 13 Sudeste 0 -- -- 64
2017-12-07 02:00:00 4.2 8 Sudeste 12 Sudeste 0 -- -- 71
2017-12-07 01:00:00 3.4 8 Sudeste 12 Sudeste 0 -- -- 77
2017-12-07 00:00:00 3.7 8 Sudeste 12 Sudeste 0 -- -- 77
2017-12-06 23:00:00 3.8 6 Sudeste 11 Sudeste 0 -- -- 74
2017-12-06 22:00:00 3.4 9 Sudeste 12 Sudeste 0 -- -- 74
2017-12-06 21:00:00 3.1 8 Sudeste 13 Sudeste 0 -- -- 76
2017-12-06 20:00:00 3 8 Sudeste 14 Sudeste 0 -- -- 78
2017-12-06 19:00:00 3.1 8 Sudeste 13 Sudeste 0 -- -- 77
2017-12-06 18:00:00 4 5 Sudeste 13 Sudeste 0 -- -- 76
2017-12-06 17:00:00 5.3 7 Sudeste 12 Sudeste 0 -- -- 70
2017-12-06 16:00:00 5.9 7 Sudeste 14 Sudeste 0 -- -- 68
2017-12-06 15:00:00 5.2 7 Sudeste 14 Sudeste 0 -- -- 65
2017-12-06 14:00:00 4.8 9 Sudeste 15 Sudeste 0 -- -- 64
2017-12-06 13:00:00 7 8 Sudeste 15 Sudeste 0 -- -- 54
2017-12-06 12:00:00 5.5 6 Sudeste 14 Sudeste 0 -- -- 59
2017-12-06 11:00:00 1.6 8 Sudeste 14 Sudeste 0 -- -- 71
2017-12-06 10:00:00 -0.6 4 Sudeste 14 Sudeste 0 -- -- 80
2017-12-06 09:00:00 -1.1 6 Sudeste 13 Sudeste 0 -- -- 81
2017-12-06 08:00:00 -1.1 5 Sudeste 11 Sudeste 0 -- -- 81
2017-12-06 07:00:00 -0.7 0 Calma 14 Sur 0 -- -- 84
2017-12-06 06:00:00 -0.5 9 Sudeste 14 Sudeste 0 -- -- 78
2017-12-06 05:00:00 -0.4 7 Sudeste 14 Sudeste 0 -- -- 79
2017-12-06 04:00:00 -0.9 5 Sudeste 12 Sudeste 0 -- -- 82
2017-12-06 03:00:00 -0.2 9 Sudeste 13 Sudeste 0 -- -- 78
2017-12-06 02:00:00 -0.3 7 Sudeste 14 Sudeste 0 -- -- 79
2017-12-06 01:00:00 -0.1 3 Sudeste 13 Sudeste 0 -- -- 80
2017-12-06 00:00:00 -0.2 5 Sudeste 13 Sudeste 0 -- -- 81
2017-12-05 23:00:00 0 9 Sudeste 12 Sudeste 0 -- -- 80
2017-12-05 22:00:00 0.1 8 Sudeste 13 Sudeste 0 -- -- 81
2017-12-05 21:00:00 0.2 6 Sudeste 13 Sudeste 0 -- -- 81
2017-12-05 20:00:00 0.5 5 Sudeste 14 Sudeste 0 -- -- 82
2017-12-05 19:00:00 1 8 Sudeste 13 Sudeste 0 -- -- 79
2017-12-05 18:00:00 1.9 7 Sudeste 15 Sudeste 0 -- -- 78
2017-12-05 17:00:00 2.6 9 Sudeste 15 Sudeste 0 -- -- 76
2017-12-05 16:00:00 2.8 8 Sudeste 16 Sudeste 0 -- -- 75
2017-12-05 15:00:00 3 8 Sudeste 15 Sudeste 0 -- -- 73
2017-12-05 14:00:00 3.9 8 Sudeste 19 Sudeste 0 -- -- 70
2017-12-05 13:00:00 5.6 8 Sudeste 15 Sur 0 -- -- 65
2017-12-05 12:00:00 4.3 7 Sudeste 13 Sur 0 -- -- 72
2017-12-05 11:00:00 1.1 8 Sudeste 13 Sur 0 -- -- 83
2017-12-05 10:00:00 -1.3 3 Sudeste 12 Sudeste 0 -- -- 91
2017-12-05 09:00:00 -1.6 6 Sudeste 10 Sudeste 0 -- -- 91
2017-12-05 08:00:00 -1.5 3 Sudeste 12 Sudeste 0 -- -- 91
2017-12-05 07:00:00 -1.5 5 Sudeste 10 Sudeste 0 -- -- 91
2017-12-05 06:00:00 -1.3 5 Sudeste 12 Sudeste 0 -- -- 92
2017-12-05 05:00:00 -1 5 Sudeste 11 Sudeste 0 -- -- 92
2017-12-05 04:00:00 -1.2 4 Sudeste 11 Sudeste 0 -- -- 94
2017-12-05 03:00:00 -1 4 Sudeste 9 Sudeste 0 -- -- 94
2017-12-05 02:00:00 -0.6 5 Sudeste 13 Sudeste 0 -- -- 93
2017-12-05 01:00:00 -0.6 5 Sudeste 10 Sudeste 0 -- -- 94
2017-12-05 00:00:00 -0.4 5 Sudeste 10 Sudeste 0 -- -- 94
2017-12-04 23:00:00 -0.2 5 Sudeste 11 Sudeste 0 -- -- 94
2017-12-04 22:00:00 0.1 8 Sudeste 12 Sudeste 0 -- -- 93
2017-12-04 21:00:00 0.4 8 Sudeste 11 Sudeste 0 -- -- 93
2017-12-04 20:00:00 0.9 5 Sudeste 9 Sudeste 0 -- -- 92
2017-12-04 19:00:00 1.5 5 Sudeste 11 Sudeste 0 -- -- 89
2017-12-04 18:00:00 2.4 6 Sudeste 15 Sudeste 0 -- -- 87
2017-12-04 17:00:00 2.9 7 Sudeste 14 Sudeste 0 -- -- 86
2017-12-04 16:00:00 3.5 8 Sudeste 15 Sudeste 0 -- -- 83
2017-12-04 15:00:00 3.8 8 Sudeste 15 Sudeste 0 -- -- 82
2017-12-04 14:00:00 4.8 9 Sudeste 13 Sudeste 0 -- -- 77
2017-12-04 13:00:00 6.1 8 Sudeste 14 Sudeste 0 -- -- 73
2017-12-04 12:00:00 6 7 Sudeste 13 Sudeste 0 -- -- 74
2017-12-04 11:00:00 4.9 5 Sudeste 10 Sudeste 0 -- -- 79
2017-12-04 10:00:00 2.8 0 Calma 9 Sudeste 0 -- -- 94
2017-12-04 09:00:00 1.7 4 Sudeste 9 Sudeste 0 -- -- 96
2017-12-04 08:00:00 1.9 3 Sudeste 6 Sur 0 -- -- 95
2017-12-04 07:00:00 1.9 4 Sudeste 7 Sudeste 0 -- -- 95
2017-12-04 06:00:00 2 2 Este 9 Sudeste 0 -- -- 95
2017-12-04 05:00:00 1.7 4 Sudeste 8 Sur 0 -- -- 96
2017-12-04 04:00:00 1.4 4 Sudeste 10 Sur 0 -- -- 96
2017-12-04 03:00:00 0.7 5 Sudeste 10 Sudeste 0 -- -- 96
2017-12-04 02:00:00 1.8 4 Sudeste 8 Sudeste 0 -- -- 95
2017-12-04 01:00:00 1.6 3 Sudeste 6 Sudeste 0 -- -- 97
2017-12-04 00:00:00 1.6 0 Calma 9 Sudeste 0 -- -- 96
2017-12-03 23:00:00 1.6 4 Sudeste 10 Sudeste 0 -- -- 94
2017-12-03 22:00:00 1.7 7 Sudeste 10 Sudeste 0 -- -- 95
2017-12-03 21:00:00 1.7 0 Calma 7 Sudeste 0 -- -- 95
2017-12-03 20:00:00 1.3 5 Sudeste 8 Sudeste 0 -- -- 94
2017-12-03 19:00:00 0.8 4 Sudeste 8 Sudeste 0 -- -- 95
2017-12-03 18:00:00 1.7 3 Sudeste 10 Sudeste 0 -- -- 92
2017-12-03 17:00:00 3.4 4 Sudeste 6 Sudeste 0 -- -- 89
2017-12-03 16:00:00 4.8 3 Sudeste 6 Sur 0 -- -- 82
2017-12-03 15:00:00 4.8 5 Sur 8 Sudeste 0 -- -- 75
2017-12-03 14:00:00 4.2 5 Sudeste 8 Sudeste 0 -- -- 82
2017-12-03 13:00:00 3.5 4 Sudeste 8 Sudeste 0 -- -- 91
2017-12-03 12:00:00 2.4 4 Sudeste 8 Sudeste 0 -- -- 96
2017-12-03 11:00:00 1.7 2 Sudeste 5 Sudeste 0 -- -- 100
2017-12-03 10:00:00 1.1 0 Calma 3 Nordeste 0.4 -- -- 100
2017-12-03 09:00:00 1.1 0 Calma 3 Sur 0 -- -- 100
2017-12-03 08:00:00 1 0 Calma 3 Oeste 0 -- -- 100
2017-12-03 07:00:00 1.1 0 Calma 4 Noroeste 0 -- -- 100
2017-12-03 06:00:00 1.1 0 Calma 3 Sudoeste 0 -- -- 100
2017-12-03 05:00:00 1.4 2 Noroeste 6 Norte 0 -- -- 100
2017-12-03 04:00:00 1.3 0 Calma 10 Norte 0 -- -- 100
2017-12-03 03:00:00 1.2 5 Noroeste 7 Noroeste 0.2 -- -- 100
2017-12-03 02:00:00 1.2 0 Calma 13 Este 0 -- -- 99
2017-12-03 01:00:00 1.5 5 Norte 18 Noroeste 0.2 -- -- 99
2017-12-03 00:00:00 1.6 5 Norte 15 Noroeste 0 -- -- 97
2017-12-02 23:00:00 1.6 7 Norte 15 Oeste 0 -- -- 96
2017-12-02 22:00:00 1.2 3 Noroeste 6 Noroeste 0 -- -- 99
2017-12-02 21:00:00 1.4 3 Este 14 Noroeste 0.6 -- -- 98
2017-12-02 20:00:00 1.8 6 Noroeste 25 Noroeste 0 -- -- 95
2017-12-02 19:00:00 1.2 11 Norte 21 Noroeste 0.4 -- -- 98
2017-12-02 18:00:00 1.4 10 Norte 23 Noroeste 0.2 -- -- 98
2017-12-02 17:00:00 1.4 8 Norte 28 Noroeste 0.6 -- -- 98
2017-12-02 16:00:00 2.1 9 Noroeste 21 Noroeste 0.2 -- -- 92
2017-12-02 15:00:00 1.7 12 Norte 21 Noroeste 0.4 -- -- 98
2017-12-02 14:00:00 2 12 Norte 28 Noroeste 0.2 -- -- 95
2017-12-02 13:00:00 2.1 10 Norte 26 Sudoeste 1 -- -- 96
2017-12-02 12:00:00 1.4 9 Noroeste 18 Norte 0.6 -- -- 97
2017-12-02 11:00:00 1.2 8 Noroeste 25 Noroeste 0 -- -- 97
2017-12-02 10:00:00 0.6 12 Norte 25 Noroeste 0.4 -- -- 99
2017-12-02 09:00:00 0.4 5 Norte 19 Norte 1.2 -- -- 100
2017-12-02 08:00:00 0.6 11 Norte 24 Norte 1.2 -- -- 99
2017-12-02 07:00:00 0.3 9 Noroeste 19 Noroeste 0.8 -- -- 100
2017-12-02 06:00:00 0.4 9 Norte 16 Norte 0.4 -- -- 100
2017-12-02 05:00:00 0.2 7 Norte 16 Noroeste 1.4 -- -- 100
2017-12-02 04:00:00 0.2 8 Noroeste 17 Noroeste 0.2 -- -- 100
2017-12-02 03:00:00 0.3 8 Norte 19 Norte 0 -- -- 100
2017-12-02 02:00:00 0.3 3 Norte 11 Norte 0.2 -- -- 100
2017-12-02 01:00:00 0.2 5 Norte 12 Norte 0.4 -- -- 100
2017-12-02 00:00:00 0.3 5 Noroeste 13 Norte 1 -- -- 100
2017-12-01 23:00:00 0.1 4 Noroeste 13 Norte 0.2 -- -- 100
2017-12-01 22:00:00 0.2 8 Norte 14 Norte 1 -- -- 100
2017-12-01 21:00:00 0.3 5 Noroeste 9 Noroeste 0 -- -- 98
2017-12-01 20:00:00 0.2 0 Calma 9 Noroeste 0.2 -- -- 96
2017-12-01 19:00:00 0.8 10 Noroeste 22 Noroeste 0.8 -- -- 91
2017-12-01 18:00:00 1.2 3 Noroeste 12 Noroeste 0 -- -- 93
2017-12-01 17:00:00 1.4 6 Noroeste 23 Norte 0 -- -- 90
2017-12-01 16:00:00 2.2 6 Noroeste 25 Oeste 0.2 -- -- 83
2017-12-01 15:00:00 2.9 12 Noroeste 30 Sudoeste 0 -- -- 75
2017-12-01 14:00:00 2.3 8 Norte 18 Noroeste 0.2 -- -- 87
2017-12-01 13:00:00 1.4 15 Noroeste 43 Oeste 2.8 -- -- 89
2017-12-01 12:00:00 2.4 8 Noroeste 32 Oeste 3.2 -- -- 92
2017-12-01 11:00:00 0.7 10 Noroeste 23 Norte 3.2 -- -- 98
2017-12-01 10:00:00 2.1 12 Norte 35 Noroeste 4.2 -- -- 97
2017-12-01 09:00:00 2.6 12 Noroeste 30 Noroeste 3.6 -- -- 98
2017-12-01 08:00:00 2.2 18 Norte 32 Noroeste 3.6 -- -- 98
2017-12-01 07:00:00 1.8 10 Norte 22 Norte 4.4 -- -- 98
2017-12-01 06:00:00 1.7 6 Norte 11 Noroeste 2.2 -- -- 99
2017-12-01 05:00:00 1.8 5 Norte 21 Norte 2.2 -- -- 98
2017-12-01 04:00:00 2.2 10 Norte 21 Norte 1.2 -- -- 99
2017-12-01 03:00:00 1.8 6 Norte 24 Norte 1.2 -- -- 98
2017-12-01 02:00:00 1.8 10 Norte 27 Norte 1.4 -- -- 98
2017-12-01 01:00:00 2.1 12 Norte 23 Norte 1.6 -- -- 97
2017-12-01 00:00:00 2 8 Norte 22 Norte 0.8 -- -- 98
2017-11-30 23:00:00 1.7 5 Norte 27 Noroeste 1.2 -- -- 99
2017-11-30 22:00:00 1.5 5 Norte 17 Noroeste 0.6 -- -- 100
2017-11-30 21:00:00 1.2 7 Norte 19 Nordeste 1 -- -- 100
2017-11-30 20:00:00 0.5 2 Norte 7 Noroeste 0.8 -- -- 100
2017-11-30 19:00:00 0.6 3 Noroeste 8 Noroeste 1.8 -- -- 99
2017-11-30 18:00:00 1.2 0 Calma 3 Oeste 1.6 -- -- 98
2017-11-30 17:00:00 1.8 2 Sudeste 5 Sudeste 0 -- -- 97
2017-11-30 16:00:00 2.1 0 Calma 4 Sudeste 0.8 -- -- 97
2017-11-30 15:00:00 2.3 0 Calma 5 Noroeste 0.2 -- -- 98
2017-11-30 14:00:00 1.5 2 Norte 5 Noroeste 0.8 -- -- 99
2017-11-30 13:00:00 1.1 3 Noroeste 10 Noroeste 0.4 -- -- 100
2017-11-30 12:00:00 0.8 4 Noroeste 6 Noroeste 0.8 -- -- 100
2017-11-30 11:00:00 0.9 0 Calma 3 Noroeste 0 -- -- 100
2017-11-30 10:00:00 0.6 0 Calma 5 Noroeste 0.2 -- -- 100
2017-11-30 09:00:00 0.3 0 Calma 4 Norte 0 -- -- 100
2017-11-30 08:00:00 0.3 2 Noroeste 5 Sur 0 -- -- 100
2017-11-30 07:00:00 0.2 0 Calma 4 Noroeste 0 -- -- 100
2017-11-30 06:00:00 0.2 2 Noroeste 6 Noroeste 0 -- -- 100
2017-11-30 05:00:00 0.1 0 Calma 4 Noroeste 0 -- -- 100
2017-11-30 04:00:00 0.2 0 Calma 3 Noroeste 1.2 -- -- 100
2017-11-30 03:00:00 0.1 3 Noroeste 6 Noroeste 0.4 -- -- 100
2017-11-30 02:00:00 0.3 4 Noroeste 8 Noroeste 0.2 -- -- 100
2017-11-30 01:00:00 0.3 0 Calma 13 Norte 0 -- -- 100
2017-11-30 00:00:00 0.2 6 Norte 11 Norte 1.4 -- -- 100
2017-11-29 23:00:00 0.2 4 Noroeste 10 Norte 0.8 -- -- 100
2017-11-29 22:00:00 0.2 2 Noroeste 5 Oeste 0.4 -- -- 100
2017-11-29 21:00:00 0.2 3 Oeste 7 Noroeste 0 -- -- 100
2017-11-29 20:00:00 0.2 0 Calma 4 Noroeste 0.8 -- -- 100
2017-11-29 19:00:00 0.3 0 Calma 9 Noroeste 0.2 -- -- 100
2017-11-29 18:00:00 0.3 3 Noroeste 6 Noroeste 1.4 -- -- 100
2017-11-29 17:00:00 0.3 0 Calma 7 Norte 1 -- -- 100
2017-11-29 16:00:00 0.4 4 Noroeste 8 Noroeste 1 -- -- 99
2017-11-29 15:00:00 0.7 4 Norte 8 Noroeste 1.8 -- -- 99
2017-11-29 14:00:00 0.9 0 Calma 6 Noroeste 1 -- -- 99
2017-11-29 13:00:00 1 3 Norte 7 Norte 1.2 -- -- 98
2017-11-29 12:00:00 0.8 3 Noroeste 10 Noroeste 1.8 -- -- 99
2017-11-29 11:00:00 1.2 4 Noroeste 16 Norte 1.2 -- -- 98
2017-11-29 10:00:00 1.8 4 Noroeste 20 Noroeste 0.8 -- -- 98
2017-11-29 09:00:00 2.1 10 Norte 17 Norte 1.4 -- -- 98
2017-11-29 08:00:00 2.4 6 Norte 13 Norte 1 -- -- 98
2017-11-29 07:00:00 2.9 3 Norte 5 Norte 0.6 -- -- 99
2017-11-29 06:00:00 2.8 0 Calma 5 Noroeste 0 -- -- 99
2017-11-29 05:00:00 2.9 0 Calma 2 Noroeste 0 -- -- 98
2017-11-29 04:00:00 3.2 0 Calma 9 Noroeste 0.2 -- -- 96
2017-11-29 03:00:00 3.7 5 Norte 11 Norte 0.2 -- -- 99
2017-11-29 02:00:00 3.9 6 Norte 12 Noroeste 0.4 -- -- 98
2017-11-29 01:00:00 4.3 6 Norte 11 Norte 0.6 -- -- 98
2017-11-29 00:00:00 4.4 4 Norte 10 Nordeste 0.4 -- -- 98
2017-11-28 23:00:00 4.4 3 Norte 5 Norte 0.4 -- -- 98
2017-11-28 22:00:00 4.5 0 Calma 4 Noroeste 0.4 -- -- 97
2017-11-28 21:00:00 4.9 0 Calma 2 Noroeste 0.4 -- -- 94
2017-11-28 20:00:00 5.1 0 Calma 5 Noroeste 0.2 -- -- 91
2017-11-28 19:00:00 5.7 3 Sudeste 5 Sudeste 0 -- -- 86
2017-11-28 18:00:00 6.9 5 Norte 13 Norte 0 -- -- 76
2017-11-28 17:00:00 7.8 4 Norte 15 Norte 0 -- -- 69
2017-11-28 16:00:00 5.1 4 Sudeste 13 Sudeste 0 -- -- 72
2017-11-28 15:00:00 3.9 7 Sudeste 15 Sudeste 0 -- -- 69
2017-11-28 14:00:00 5.2 7 Sudeste 12 Sudeste 0 -- -- 64
2017-11-28 13:00:00 6.8 8 Sudeste 13 Sudeste 0 -- -- 58
2017-11-28 12:00:00 5.5 8 Sudeste 12 Sudeste 0 -- -- 63
2017-11-28 11:00:00 2.5 9 Sudeste 14 Sudeste 0 -- -- 75
2017-11-28 10:00:00 -0.8 5 Sudeste 10 Sudeste 0 -- -- 86
2017-11-28 09:00:00 -0.9 5 Sudeste 14 Sudeste 0 -- -- 85
2017-11-28 08:00:00 -1.1 6 Sudeste 11 Sudeste 0 -- -- 85
2017-11-28 07:00:00 -0.9 3 Sudeste 11 Sudeste 0 -- -- 87
2017-11-28 06:00:00 -0.7 7 Sudeste 12 Sur 0 -- -- 86
2017-11-28 05:00:00 -0.8 4 Sudeste 9 Sudeste 0 -- -- 90
2017-11-28 04:00:00 -0.5 4 Sudeste 10 Sur 0 -- -- 90
2017-11-28 03:00:00 -0.2 6 Sudeste 11 Sudeste 0 -- -- 90
2017-11-28 02:00:00 -0.1 6 Sudeste 12 Sudeste 0 -- -- 91
2017-11-28 01:00:00 0.3 0 Calma 11 Sudeste 0 -- -- 91
2017-11-28 00:00:00 0.7 6 Sudeste 11 Sudeste 0 -- -- 90
2017-11-27 23:00:00 0.9 6 Sudeste 10 Sudeste 0 -- -- 90
2017-11-27 22:00:00 0.8 3 Sudeste 9 Sudeste 0 -- -- 91
2017-11-27 21:00:00 1.7 5 Sudeste 11 Sudeste 0 -- -- 87
2017-11-27 20:00:00 2.4 6 Sudeste 10 Sudeste 0 -- -- 85
2017-11-27 19:00:00 3.3 6 Sudeste 12 Sudeste 0 -- -- 82
2017-11-27 18:00:00 4.7 6 Sudeste 10 Sudeste 0 -- -- 81
2017-11-27 17:00:00 6.4 5 Sudeste 9 Sudeste 0 -- -- 75
2017-11-27 16:00:00 7.2 5 Sudeste 9 Sudeste 0 -- -- 69
2017-11-27 15:00:00 6.9 6 Sudeste 8 Sur 0 -- -- 66
2017-11-27 14:00:00 7.6 5 Sudeste 9 Sudeste 0 -- -- 62
2017-11-27 13:00:00 7.5 7 Sur 10 Sur 0 -- -- 54
2017-11-27 12:00:00 5.8 6 Sudeste 10 Sudeste 0 -- -- 65
2017-11-27 11:00:00 2.3 6 Sudeste 11 Sudeste 0 -- -- 80
2017-11-27 10:00:00 -0.5 4 Sudeste 9 Sudeste 0 -- -- 91
2017-11-27 09:00:00 -1 5 Sudeste 9 Sudeste 0 -- -- 92
2017-11-27 08:00:00 -0.5 3 Sudeste 10 Este 0 -- -- 91
2017-11-27 07:00:00 -0.6 6 Sudeste 10 Sudeste 0 -- -- 93
2017-11-27 06:00:00 -0.2 3 Sudeste 10 Sudeste 0 -- -- 91
2017-11-27 05:00:00 -0.1 4 Sudeste 10 Sudeste 0 -- -- 91
2017-11-27 04:00:00 -0.2 4 Sudeste 9 Sudeste 0 -- -- 95
2017-11-27 03:00:00 -0.1 5 Sudeste 9 Sudeste 0 -- -- 97
2017-11-27 02:00:00 -0.4 0 Calma 6 Sudeste 0 -- -- 97
2017-11-27 01:00:00 0.1 2 Sudeste 10 Sudeste 0 -- -- 96
2017-11-27 00:00:00 0.1 5 Sudeste 9 Sudeste 0 -- -- 97
2017-11-26 23:00:00 0 4 Sudeste 9 Sudeste 0 -- -- 97
2017-11-26 22:00:00 0.3 5 Sudeste 9 Sudeste 0 -- -- 97
2017-11-26 21:00:00 0.7 4 Sudeste 9 Sudeste 0 -- -- 96
2017-11-26 20:00:00 1.1 3 Sudeste 7 Sudeste 0 -- -- 95
2017-11-26 19:00:00 2.1 5 Sudeste 13 Sudeste 0 -- -- 91
2017-11-26 18:00:00 2.5 6 Sudeste 13 Sudeste 0 -- -- 91
2017-11-26 17:00:00 3 8 Sudeste 12 Sudeste 0 -- -- 89
2017-11-26 16:00:00 3.4 5 Sudeste 12 Sur 0 -- -- 86
2017-11-26 15:00:00 3.7 5 Sur 12 Sudeste 0 -- -- 83
2017-11-26 14:00:00 4.6 5 Sur 11 Sur 0 -- -- 78
2017-11-26 13:00:00 5.9 6 Sudeste 13 Sur 0 -- -- 69
2017-11-26 12:00:00 4.7 6 Sudeste 12 Sur 0 -- -- 79
2017-11-26 11:00:00 2.3 5 Sudeste 9 Sudeste 0 -- -- 89
2017-11-26 10:00:00 -0.6 0 Calma 8 Sur 0 -- -- 98
2017-11-26 09:00:00 -0.8 4 Sudeste 8 Sudeste 0 -- -- 99
2017-11-26 08:00:00 -0.6 2 Sudoeste 9 Sudeste 0 -- -- 99
2017-11-26 07:00:00 -0.4 4 Sudeste 9 Sudeste 0 -- -- 100
2017-11-26 06:00:00 0.1 3 Sudeste 7 Sudeste 0 -- -- 99
2017-11-26 05:00:00 0.3 0 Calma 4 Nordeste 0 -- -- 99
2017-11-26 04:00:00 0.9 0 Calma 4 Sudeste 0 -- -- 98
2017-11-26 03:00:00 1.6 0 Calma 8 Sudeste 0 -- -- 97
2017-11-26 02:00:00 2.1 3 Sudeste 6 Sudeste 0 -- -- 97
2017-11-26 01:00:00 3.2 0 Calma 5 Este 0 -- -- 95
2017-11-26 00:00:00 3.5 3 Norte 5 Noroeste 0.2 -- -- 97
2017-11-25 23:00:00 3.8 3 Norte 6 Noroeste 0 -- -- 98
2017-11-25 22:00:00 3.8 0 Calma 3 Oeste 0 -- -- 98
2017-11-25 21:00:00 3.9 0 Calma 5 Nordeste 0 -- -- 97
2017-11-25 20:00:00 4.2 2 Norte 6 Norte 0 -- -- 95
2017-11-25 19:00:00 4.4 3 Nordeste 5 Norte 0 -- -- 92
2017-11-25 18:00:00 4.7 3 Nordeste 9 Noroeste 0 -- -- 90
2017-11-25 17:00:00 5.2 6 Noroeste 19 Noroeste 0.4 -- -- 84
2017-11-25 16:00:00 6.1 4 Norte 12 Noroeste 0 -- -- 91
2017-11-25 15:00:00 6 7 Noroeste 19 Noroeste 0 -- -- 88
2017-11-25 14:00:00 6 6 Noroeste 14 Noroeste 0.6 -- -- 93
2017-11-25 13:00:00 6 6 Norte 17 Noroeste 0 -- -- 94
2017-11-25 12:00:00 5.9 8 Noroeste 17 Noroeste 0 -- -- 92
2017-11-25 11:00:00 5.9 7 Norte 20 Noroeste 0.2 -- -- 93
2017-11-25 10:00:00 5.8 6 Norte 14 Noroeste 0.2 -- -- 96
2017-11-25 09:00:00 5.8 10 Noroeste 21 Noroeste 1 -- -- 94
2017-11-25 08:00:00 5.9 7 Norte 13 Norte 0.6 -- -- 100
2017-11-25 07:00:00 6 4 Norte 11 Noroeste 0.4 -- -- 99
2017-11-25 06:00:00 6 5 Norte 8 Norte 0.4 -- -- 98
2017-11-25 05:00:00 6.2 2 Noroeste 9 Noroeste 0.4 -- -- 97
2017-11-25 04:00:00 6.6 8 Norte 19 Noroeste 0.4 -- -- 96
2017-11-25 03:00:00 7.5 10 Norte 21 Norte 0.8 -- -- 96
2017-11-25 02:00:00 8.3 0 Calma 3 Noroeste 1.2 -- -- 97
2017-11-25 01:00:00 8.5 0 Calma 14 Norte 1 -- -- 97
2017-11-25 00:00:00 8.8 5 Norte 9 Noroeste 1.8 -- -- 98
2017-11-24 23:00:00 8.9 5 Norte 9 Noroeste 4.4 -- -- 98
2017-11-24 22:00:00 9 5 Norte 10 Noroeste 1.8 -- -- 98
2017-11-24 21:00:00 9.1 3 Norte 6 Norte 1.2 -- -- 97
2017-11-24 20:00:00 9.3 3 Noroeste 8 Norte 0.6 -- -- 97
2017-11-24 19:00:00 9.4 0 Calma 9 Norte 1.8 -- -- 97
2017-11-24 18:00:00 9.5 6 Norte 13 Noroeste 3.4 -- -- 97
2017-11-24 17:00:00 10.1 7 Norte 14 Norte 0.6 -- -- 95
2017-11-24 16:00:00 11.5 4 Norte 11 Norte 0.4 -- -- 92
2017-11-24 15:00:00 12.4 0 Calma 14 Noroeste 0.2 -- -- 85
2017-11-24 14:00:00 12.1 10 Norte 20 Noroeste 0 -- -- 85
2017-11-24 13:00:00 12.3 5 Noroeste 13 Noroeste 0 -- -- 83
2017-11-24 12:00:00 12.1 5 Noroeste 10 Noroeste 0 -- -- 83
2017-11-24 11:00:00 11.1 3 Noroeste 8 Noroeste 0 -- -- 88
2017-11-24 10:00:00 10.3 6 Norte 13 Norte 0 -- -- 88
2017-11-24 09:00:00 10.1 2 Noroeste 5 Este 0 -- -- 84
2017-11-24 08:00:00 10.9 2 Noroeste 13 Nordeste 0 -- -- 80
2017-11-24 07:00:00 9.8 2 Norte 6 Nordeste 0 -- -- 87
2017-11-24 06:00:00 10.4 0 Calma 6 Nordeste 0 -- -- 85
2017-11-24 05:00:00 12 3 Sudeste 33 Sudeste 0 -- -- 71
2017-11-24 04:00:00 12.8 12 Este 38 Este 0 -- -- 66
2017-11-24 03:00:00 13.7 8 Sudeste 27 Nordeste 0 -- -- 60
2017-11-24 02:00:00 13.8 6 Sudeste 30 Este 0 -- -- 58
2017-11-24 01:00:00 14.1 4 Sudoeste 24 Este 0 -- -- 60
2017-11-24 00:00:00 14.6 6 Este 21 Sudoeste 0 -- -- 54
2017-11-23 23:00:00 14.8 10 Este 25 Nordeste 0 -- -- 54
2017-11-23 22:00:00 14.6 8 Este 24 Sudeste 0 -- -- 58
2017-11-23 21:00:00 11.5 3 Este 9 Oeste 0 -- -- 77
2017-11-23 20:00:00 11.7 3 Noroeste 15 Sudeste 0 -- -- 74
2017-11-23 19:00:00 11.7 3 Sudeste 12 Sudeste 0 -- -- 72
2017-11-23 18:00:00 13.9 4 Sudeste 22 Noroeste 0 -- -- 64
2017-11-23 17:00:00 15.4 4 Este 18 Este 0 -- -- 57
2017-11-23 16:00:00 16.5 6 Nordeste 38 Sudeste 0 -- -- 53
2017-11-23 15:00:00 15.7 11 Este 47 Sur 0 -- -- 49
2017-11-23 14:00:00 14.4 15 Sudeste 45 Sudeste 0 -- -- 56
2017-11-23 13:00:00 15.6 14 Sudeste 48 Sudeste 0 -- -- 53
2017-11-23 12:00:00 15.7 12 Sudeste 37 Sudeste 0 -- -- 51
2017-11-23 11:00:00 12.2 3 Sudeste 17 Sudeste 0 -- -- 67
2017-11-23 10:00:00 9.6 6 Sudeste 13 Sur 0 -- -- 76
2017-11-23 09:00:00 10 4 Este 14 Sudeste 0 -- -- 74
2017-11-23 08:00:00 12.4 8 Sudeste 27 Sudeste 0 -- -- 63
2017-11-23 07:00:00 12.5 6 Sudeste 27 Sur 0 -- -- 61
2017-11-23 06:00:00 12.8 5 Sudeste 30 Este 0 -- -- 56
2017-11-23 05:00:00 13.4 8 Sudeste 31 Sudeste 0 -- -- 52
2017-11-23 04:00:00 13.8 14 Este 30 Nordeste 0 -- -- 50
2017-11-23 03:00:00 13.6 7 Este 23 Sudeste 0 -- -- 49
2017-11-23 02:00:00 12.9 7 Sudeste 36 Este 0 -- -- 53
2017-11-23 01:00:00 12.8 4 Sudeste 28 Este 0 -- -- 51
2017-11-23 00:00:00 13.7 11 Sudeste 33 Sudeste 0 -- -- 43
2017-11-22 23:00:00 13.9 7 Este 32 Sur 0 -- -- 41
2017-11-22 22:00:00 14.4 12 Este 30 Este 0 -- -- 41
2017-11-22 21:00:00 14.3 6 Sudeste 28 Este 0 -- -- 44
2017-11-22 20:00:00 14.8 7 Este 36 Sudeste 0 -- -- 43
2017-11-22 19:00:00 14.5 10 Este 27 Sudeste 0 -- -- 44
2017-11-22 18:00:00 14.5 10 Este 44 Sudeste 0 -- -- 47
2017-11-22 17:00:00 15.9 16 Este 56 Sudeste 0 -- -- 42
2017-11-22 16:00:00 16.3 12 Este 49 Este 0 -- -- 42
2017-11-22 15:00:00 16.8 14 Este 40 Este 0 -- -- 41
2017-11-22 14:00:00 17 8 Este 44 Nordeste 0 -- -- 39
2017-11-22 13:00:00 17.9 13 Este 38 Este 0 -- -- 35
2017-11-22 12:00:00 17.7 8 Este 30 Sur 0 -- -- 32
2017-11-22 11:00:00 16.7 10 Sudeste 26 Sur 0 -- -- 35
2017-11-22 10:00:00 12.4 3 Noroeste 17 Sur 0 -- -- 47
2017-11-22 09:00:00 14.8 6 Sur 28 Sudeste 0 -- -- 35
2017-11-22 08:00:00 16 10 Sudeste 32 Sudeste 0 -- -- 33
2017-11-22 07:00:00 15.9 10 Sudeste 34 Sur 0 -- -- 35
2017-11-22 06:00:00 14 11 Sudeste 30 Sudeste 0 -- -- 38
2017-11-22 05:00:00 12.5 5 Sur 19 Sur 0 -- -- 43
2017-11-22 04:00:00 12.5 3 Sudeste 20 Sur 0 -- -- 45
2017-11-22 03:00:00 14.7 9 Sur 32 Sudeste 0 -- -- 36
2017-11-22 02:00:00 15 13 Sudeste 39 Este 0 -- -- 34
2017-11-22 01:00:00 14.1 12 Sudeste 35 Sudeste 0 -- -- 36
2017-11-22 00:00:00 6.3 3 Norte 16 Sudeste 0 -- -- 58
2017-11-21 23:00:00 4.3 0 Calma 14 Sudeste 0 -- -- 70
2017-11-21 22:00:00 4.7 3 Sudeste 12 Sudeste 0 -- -- 70
2017-11-21 21:00:00 5.8 3 Sudeste 11 Este 0 -- -- 69
2017-11-21 20:00:00 7.3 5 Sudeste 14 Sudeste 0 -- -- 53
2017-11-21 19:00:00 7.4 8 Sudeste 12 Sudeste 0 -- -- 56
2017-11-21 18:00:00 9.7 4 Sudeste 18 Sudeste 0 -- -- 57
2017-11-21 17:00:00 12.2 5 Sudeste 17 Sudeste 0 -- -- 45
2017-11-21 16:00:00 12.7 6 Sudeste 14 Sudeste 0 -- -- 45
2017-11-21 15:00:00 11.7 4 Sudeste 10 Sudeste 0 -- -- 52
2017-11-21 14:00:00 13.9 4 Sudeste 11 Sudeste 0 -- -- 44
2017-11-21 13:00:00 15.1 7 Sudeste 14 Sudeste 0 -- -- 40
2017-11-21 12:00:00 13.3 7 Sudeste 12 Sudeste 0 -- -- 44
2017-11-21 11:00:00 9.6 4 Sudeste 12 Sudeste 0 -- -- 55
2017-11-21 10:00:00 3.7 10 Sudeste 13 Sudeste 0 -- -- 74
2017-11-21 09:00:00 2.5 5 Sudeste 11 Sudeste 0 -- -- 81
2017-11-21 08:00:00 3.6 7 Sudeste 17 Sudeste 0 -- -- 71
2017-11-21 07:00:00 2 3 Sudeste 10 Sudeste 0 -- -- 87
2017-11-21 06:00:00 2.5 4 Sudeste 13 Sudeste 0 -- -- 86
2017-11-21 05:00:00 3 7 Sudeste 13 Sudeste 0 -- -- 80
2017-11-21 04:00:00 2.9 4 Sudeste 12 Sudeste 0 -- -- 84
2017-11-21 03:00:00 3.1 4 Sudeste 10 Sudeste 0 -- -- 83
2017-11-21 02:00:00 4.2 5 Sudeste 15 Sudeste 0 -- -- 79
2017-11-21 01:00:00 4 6 Sudeste 11 Sudeste 0 -- -- 80
2017-11-21 00:00:00 4.3 6 Sudeste 12 Sudeste 0 -- -- 80
2017-11-20 23:00:00 4.9 6 Sudeste 14 Sudeste 0 -- -- 77
2017-11-20 22:00:00 5.2 6 Sudeste 13 Sudeste 0 -- -- 77
2017-11-20 21:00:00 5.7 10 Sudeste 13 Sudeste 0 -- -- 74
2017-11-20 20:00:00 6.3 9 Sudeste 14 Sudeste 0 -- -- 71
2017-11-20 19:00:00 7.4 10 Sudeste 13 Sudeste 0 -- -- 68
2017-11-20 18:00:00 9 8 Sudeste 14 Sudeste 0 -- -- 66
2017-11-20 17:00:00 10.8 9 Sudeste 13 Sudeste 0 -- -- 64
2017-11-20 16:00:00 11 8 Sudeste 13 Sudeste 0 -- -- 60
2017-11-20 15:00:00 11.9 9 Sudeste 14 Sudeste 0 -- -- 55
2017-11-20 14:00:00 13.5 8 Sudeste 15 Sudeste 0 -- -- 45
2017-11-20 13:00:00 14.9 7 Sudeste 14 Sudeste 0 -- -- 43
2017-11-20 12:00:00 13.1 7 Sudeste 17 Sudeste 0 -- -- 48
2017-11-20 11:00:00 9.4 8 Sudeste 17 Sudeste 0 -- -- 60
2017-11-20 10:00:00 3.7 6 Sudeste 10 Sudeste 0 -- -- 81
2017-11-20 09:00:00 3.8 3 Sudeste 15 Sudeste 0 -- -- 80
2017-11-20 08:00:00 2.6 5 Sudeste 13 Sudeste 0 -- -- 85
2017-11-20 07:00:00 1.9 4 Sudeste 8 Sudeste 0 -- -- 91
2017-11-20 06:00:00 1.8 4 Sudeste 6 Sudeste 0 -- -- 90
2017-11-20 05:00:00 2 3 Sudeste 9 Sudeste 0 -- -- 87
2017-11-20 04:00:00 3 6 Sudeste 13 Sudeste 0 -- -- 81
2017-11-20 03:00:00 3.1 9 Sudeste 13 Sudeste 0 -- -- 79
2017-11-20 02:00:00 2.2 5 Sudeste 10 Sudeste 0 -- -- 87
2017-11-20 01:00:00 2.5 0 Calma 10 Sudeste 0 -- -- 89
2017-11-20 00:00:00 2.5 4 Sudeste 10 Sudeste 0 -- -- 87
2017-11-19 23:00:00 2.6 3 Sudeste 10 Sudeste 0 -- -- 86
2017-11-19 22:00:00 3.5 7 Sudeste 13 Sudeste 0 -- -- 79
2017-11-19 21:00:00 3.5 8 Sudeste 12 Sudeste 0 -- -- 78
2017-11-19 20:00:00 4.3 4 Sudeste 17 Sudeste 0 -- -- 76
2017-11-19 19:00:00 4.7 8 Sudeste 13 Sudeste 0 -- -- 74
2017-11-19 18:00:00 5.7 9 Sudeste 14 Sudeste 0 -- -- 73
2017-11-19 17:00:00 6.7 9 Sudeste 14 Sudeste 0 -- -- 68
2017-11-19 16:00:00 7.3 10 Sudeste 14 Sudeste 0 -- -- 63
2017-11-19 15:00:00 8.5 7 Sudeste 15 Sur 0 -- -- 56
2017-11-19 14:00:00 10.8 9 Sur 13 Sudeste 0 -- -- 48
2017-11-19 13:00:00 12.7 5 Sudeste 11 Sudeste 0 -- -- 41
2017-11-19 12:00:00 11 6 Sudeste 11 Sudeste 0 -- -- 53
2017-11-19 11:00:00 7.6 7 Sudeste 14 Sudeste 0 -- -- 62
2017-11-19 10:00:00 2.6 8 Sudeste 12 Sudeste 0 -- -- 79
2017-11-19 09:00:00 1.4 3 Sudeste 12 Sudeste 0 -- -- 83
2017-11-19 08:00:00 1.4 4 Sudeste 13 Sudeste 0 -- -- 83
2017-11-19 07:00:00 1.3 5 Sudeste 10 Sudeste 0 -- -- 83
2017-11-19 06:00:00 1.9 5 Sudeste 13 Sudeste 0 -- -- 80
2017-11-19 05:00:00 1.5 5 Sudeste 12 Sudeste 0 -- -- 82
2017-11-19 04:00:00 1.7 6 Sudeste 11 Sudeste 0 -- -- 81
2017-11-19 03:00:00 1.5 8 Sudeste 12 Sudeste 0 -- -- 85
2017-11-19 02:00:00 1.8 6 Sudeste 13 Sudeste 0 -- -- 85
2017-11-19 01:00:00 1.9 2 Sur 12 Sudeste 0 -- -- 87
2017-11-19 00:00:00 1.8 5 Sudeste 10 Sudeste 0 -- -- 88
2017-11-18 23:00:00 2.2 6 Sudeste 11 Sudeste 0 -- -- 90
2017-11-18 22:00:00 3 4 Sudeste 12 Sudeste 0 -- -- 91
2017-11-18 21:00:00 3.4 6 Sudeste 12 Sudeste 0 -- -- 92
2017-11-18 20:00:00 4 8 Sudeste 12 Sudeste 0 -- -- 92
2017-11-18 19:00:00 4.7 6 Sudeste 12 Sudeste 0 -- -- 90
2017-11-18 18:00:00 5.8 8 Sudeste 12 Sudeste 0 -- -- 86
2017-11-18 17:00:00 6.6 7 Sudeste 12 Sudeste 0 -- -- 83
2017-11-18 16:00:00 7.1 8 Sudeste 12 Sur 0 -- -- 81
2017-11-18 15:00:00 7.8 7 Sudeste 10 Sudeste 0 -- -- 77
2017-11-18 14:00:00 10.1 4 Sur 8 Sur 0 -- -- 66
2017-11-18 13:00:00 11.6 4 Sur 6 Sur 0 -- -- 57
2017-11-18 12:00:00 10.1 3 Sur 12 Sudeste 0 -- -- 69
2017-11-18 11:00:00 6.1 8 Sudeste 14 Sudeste 0 -- -- 86
2017-11-18 10:00:00 1.9 5 Sudeste 12 Sudeste 0 -- -- 100
2017-11-18 09:00:00 0.7 3 Sudeste 9 Sudeste 0 -- -- 100
2017-11-18 08:00:00 0.4 2 Sudeste 8 Sur 0 -- -- 99
2017-11-18 07:00:00 0.7 3 Sudeste 9 Sudeste 0 -- -- 99
2017-11-18 06:00:00 1.1 2 Sudeste 5 Sudeste 0 -- -- 99
2017-11-18 05:00:00 1.7 2 Sudeste 6 Sudeste 0 -- -- 98
2017-11-18 04:00:00 3 2 Sudeste 9 Sudeste 0 -- -- 98
2017-11-18 03:00:00 4.2 3 Sudeste 9 Sur 0 -- -- 98
2017-11-18 02:00:00 5 0 Calma 5 Sur 0 -- -- 97
2017-11-18 01:00:00 4.6 4 Sudeste 12 Sudeste 0 -- -- 97
2017-11-18 00:00:00 4.1 6 Sudeste 11 Sudeste 0 -- -- 95
2017-11-17 23:00:00 5.1 5 Sudeste 11 Sudeste 0 -- -- 94
2017-11-17 22:00:00 6.2 3 Sudeste 15 Sudeste 0 -- -- 93
2017-11-17 21:00:00 5.9 5 Sudeste 9 Sudeste 0 -- -- 96
2017-11-17 20:00:00 4.9 6 Sudeste 10 Sudeste 0 -- -- 96
2017-11-17 19:00:00 5.2 7 Sudeste 9 Sudeste 0 -- -- 94
2017-11-17 18:00:00 6.5 6 Sudeste 9 Sudeste 0 -- -- 91
2017-11-17 17:00:00 8 6 Sudeste 8 Sudeste 0 -- -- 89
2017-11-17 16:00:00 8.2 5 Sudeste 9 Sudeste 0 -- -- 86
2017-11-17 15:00:00 8.7 2 Sur 6 Noroeste 0 -- -- 82
2017-11-17 14:00:00 9.7 2 Oeste 8 Noroeste 0 -- -- 75
2017-11-17 13:00:00 10 3 Noroeste 6 Noroeste 0 -- -- 70
2017-11-17 12:00:00 7.7 3 Noroeste 11 Sudeste 0 -- -- 77
2017-11-17 11:00:00 5.8 5 Sudeste 11 Sudeste 0 -- -- 89
2017-11-17 10:00:00 2 3 Sudeste 5 Sudeste 0 -- -- 100
2017-11-17 09:00:00 1.7 4 Sudeste 8 Sudeste 0 -- -- 99
2017-11-17 08:00:00 1.6 3 Sudeste 8 Sudeste 0 -- -- 98
2017-11-17 07:00:00 1.9 3 Sudeste 10 Sudeste 0 -- -- 98
2017-11-17 06:00:00 2.1 3 Sudeste 8 Sudeste 0 -- -- 98
2017-11-17 05:00:00 2.8 0 Calma 9 Sudeste 0 -- -- 96
2017-11-17 04:00:00 3 3 Sudeste 9 Sudeste 0 -- -- 95
2017-11-17 03:00:00 3.2 3 Sudeste 10 Sudeste 0 -- -- 95
2017-11-17 02:00:00 3.6 5 Sudeste 11 Sudeste 0 -- -- 95
2017-11-17 01:00:00 3.4 4 Sudeste 11 Sudeste 0 -- -- 95
2017-11-17 00:00:00 3.8 3 Sudeste 10 Sudeste 0 -- -- 94
2017-11-16 23:00:00 4.3 4 Sudeste 13 Sudeste 0 -- -- 92
2017-11-16 22:00:00 4.8 5 Sudeste 11 Sudeste 0 -- -- 91
2017-11-16 21:00:00 5.3 7 Sudeste 15 Sudeste 0 -- -- 91
2017-11-16 20:00:00 5.8 5 Sudeste 12 Sudeste 0 -- -- 90
2017-11-16 19:00:00 6.8 8 Sudeste 10 Sudeste 0 -- -- 88
2017-11-16 18:00:00 8.2 8 Sudeste 10 Sudeste 0 -- -- 85
2017-11-16 17:00:00 9.9 6 Sudeste 9 Sudeste 0 -- -- 82
2017-11-16 16:00:00 10.5 3 Sudeste 10 Sur 0 -- -- 75
2017-11-16 15:00:00 10.3 7 Sudeste 10 Sudeste 0 -- -- 71
2017-11-16 14:00:00 12.7 4 Sur 8 Sur 0 -- -- 60
2017-11-16 13:00:00 13.5 5 Sudeste 11 Sudeste 0 -- -- 54
2017-11-16 12:00:00 12 5 Sudeste 13 Sudeste 0 -- -- 63
2017-11-16 11:00:00 9.3 3 Sudeste 10 Sudeste 0 -- -- 77
2017-11-16 10:00:00 4.5 7 Sudeste 12 Sudeste 0 -- -- 88
2017-11-16 09:00:00 2.9 7 Sudeste 11 Sudeste 0 -- -- 94
2017-11-16 08:00:00 3.1 7 Sudeste 12 Sudeste 0 -- -- 92
2017-11-16 07:00:00 3.4 3 Sudeste 12 Sudeste 0 -- -- 91
2017-11-16 06:00:00 4 7 Sudeste 12 Sudeste 0 -- -- 89
2017-11-16 05:00:00 3.6 6 Sudeste 12 Sudeste 0 -- -- 92
2017-11-16 04:00:00 4.4 4 Sudeste 12 Sudeste 0 -- -- 90
2017-11-16 03:00:00 4.5 6 Sudeste 12 Sudeste 0 -- -- 89
2017-11-16 02:00:00 4.4 7 Sudeste 13 Sudeste 0 -- -- 89
2017-11-16 01:00:00 4.1 4 Sudeste 10 Sudeste 0 -- -- 92
2017-11-16 00:00:00 4.7 6 Sudeste 13 Sudeste 0 -- -- 88
2017-11-15 23:00:00 4.7 6 Sudeste 12 Sudeste 0 -- -- 89
2017-11-15 22:00:00 5 6 Sudeste 13 Sudeste 0 -- -- 88
2017-11-15 21:00:00 5.3 8 Sudeste 14 Sudeste 0 -- -- 88
2017-11-15 20:00:00 5.9 8 Sudeste 12 Sudeste 0 -- -- 86
2017-11-15 19:00:00 6.6 8 Sudeste 13 Sudeste 0 -- -- 84
2017-11-15 18:00:00 7.7 8 Sudeste 14 Sudeste 0 -- -- 81
2017-11-15 17:00:00 8.2 7 Sudeste 13 Sudeste 0 -- -- 81
2017-11-15 16:00:00 8.9 8 Sudeste 11 Sur 0 -- -- 78
2017-11-15 15:00:00 9.5 8 Sudeste 12 Sur 0 -- -- 75
2017-11-15 14:00:00 12.5 3 Sur 8 Sudeste 0 -- -- 62
2017-11-15 13:00:00 13.1 3 Sudeste 12 Noroeste 0 -- -- 62
2017-11-15 12:00:00 12.2 6 Noroeste 17 Sudeste 0 -- -- 67
2017-11-15 11:00:00 9.4 5 Sudeste 10 Sudeste 0 -- -- 80
2017-11-15 10:00:00 4.9 0 Calma 10 Sudeste 0 -- -- 97
2017-11-15 09:00:00 3 3 Sudeste 10 Sudeste 0 -- -- 98
2017-11-15 08:00:00 2.5 2 Sudeste 8 Sudeste 0 -- -- 98
2017-11-15 07:00:00 2.6 5 Sudeste 11 Sudeste 0 -- -- 97
2017-11-15 06:00:00 3 6 Sudeste 12 Sudeste 0 -- -- 94
2017-11-15 05:00:00 2.4 4 Sudeste 11 Sudeste 0 -- -- 97
2017-11-15 04:00:00 2.5 8 Sudeste 13 Sudeste 0 -- -- 98
2017-11-15 03:00:00 2.4 6 Sudeste 12 Sudeste 0 -- -- 98
2017-11-15 02:00:00 1.8 4 Sudeste 11 Sudeste 0 -- -- 98
2017-11-15 01:00:00 1.9 4 Sudeste 10 Sudeste 0 -- -- 97
2017-11-15 00:00:00 2.1 5 Sudeste 12 Sudeste 0 -- -- 98